Belmonte, Brazil
Current Conditions -  °F | °C
As of 5:00 AM on Monday 22 Dec 2014 (Local Time) from SBPS Reporting Station
Few Clouds Few Clouds  
Wind Chill: 73°   Ceiling: Unl
Heat Index: 73°   Visibility: 6mi
Dew Point: 72°   Wind: 2mph
Humidity: 94%   Direction: 310°NW
Pressure: 29.97"   Gusts: NA
Location:  15.88°S, 38.89°W
Report Text: SBPS 220800Z 31002KT 9999 FEW020 23/22 Q1015
Loading
Personal Weather Stations






























Interactive Weather Map New forecast layout! Learn more

10-Day Weather Forecast

Advertisements
Track Severe Weather on mobile